Pagrindinis puslapis
METAR-TAF:

METAR-TAF

Oro uostai :

Kairas, Egiptas

platuma: 30-08N, ilguma: 031-24E, Aukštis: 64 m

Dabartinis oras

Ataskaita buvo paskelbta 11 minutes, ne 10:30 UTC
Vėjas 12 kt iš Šiaurės/Šiaurės Rytų
Temperatūra 27°C
Drėgmė 24%
Slėgis 1015 hPa
Matomumas 10 km arba daugiau
nėra debesų žemiau 1500 m ir nėra kamuolinių lietaus debesų

METAR: HECA 311030Z 02012KT CAVOK 27/05 Q1015 NOSIG

Laikas: 12:41 (10:41 UTC)

Prognozė

Ataskaita buvo paskelbta 5 valandos ir 41 minutes, ne 05:00 UTC
Prognozė galioja nuo 31 metu 06 UTC su 01 metu 12 UTC
Vėjas 11 kt iš Rytų/Šiaurės Rytų
Matomumas 10 km arba daugiau
nėra debesų žemiau 1500 m ir nėra kamuolinių lietaus debesų

TAF: HECA 310500Z 3106/0112 06011KT CAVOK

Orai ataskaitas ir orų prognozės (METAR, TAF).

turimą stotys yra geltonos ir raudonos taškus žemėlapyje.

Perkelti pele per norėdami pamatyti stoties vardą.

Tada spustelėkite, norėdami matyti oro stebėjimo ir prognozės.

Norėdami pakeisti žemėlapį: spustelėkite ant žalios mygtukų su juodo kryžiaus žemyn,; žalią mygtuką su brūkšneliu, jei norite nutolinti; arba žalių rodyklių gretimoms žemėlapius.


METAR-TAF: